Terminal Aerodrome Forecast
Issued by NWS Brownsville, TX

Current Version | Previous Version | Text Only | Print | Product List | Glossary Off
Versions: 1 2 3 4 5 6 7 8 9 10 11 12 13 14 15 16 17 18 19

582
FTUS44 KBRO 171525 AAA
TAFHRL
TAF AMD
KHRL 171525Z 1715/1812 02004KT 4SM BR OVC005
      TEMPO 1715/1717 1/2SM FG
     FM172000 08005KT 6SM BR OVC008
     FM180300 08006KT 3SM BR OVC004
     FM180600 09005KT 1SM BR OVC002=

USA.gov is the U.S. government's official web portal to all federal, state and local government web resources and services.